sensor_id;sensor_type;location;lat;lon;timestamp;temperature;humidity
10245;DHT22;5167;52.164;10.530;2023-09-18T00:00:40;23.00;5.00
10245;DHT22;5167;52.164;10.530;2023-09-18T00:03:08;22.90;5.10
10245;DHT22;5167;52.164;10.530;2023-09-18T00:05:33;22.90;5.00
10245;DHT22;5167;52.164;10.530;2023-09-18T00:07:59;22.90;5.30
10245;DHT22;5167;52.164;10.530;2023-09-18T00:10:27;22.90;5.20
10245;DHT22;5167;52.164;10.530;2023-09-18T00:12:54;22.80;5.00
10245;DHT22;5167;52.164;10.530;2023-09-18T00:15:20;22.80;5.00
10245;DHT22;5167;52.164;10.530;2023-09-18T00:17:45;22.80;7.50
10245;DHT22;5167;52.164;10.530;2023-09-18T00:20:11;22.80;5.70
10245;DHT22;5167;52.164;10.530;2023-09-18T00:22:37;22.80;5.90
10245;DHT22;5167;52.164;10.530;2023-09-18T00:25:02;22.80;5.70
10245;DHT22;5167;52.164;10.530;2023-09-18T00:27:29;22.80;5.30
10245;DHT22;5167;52.164;10.530;2023-09-18T00:29:54;22.70;5.10
10245;DHT22;5167;52.164;10.530;2023-09-18T00:32:20;22.70;5.00
10245;DHT22;5167;52.164;10.530;2023-09-18T00:34:45;22.70;5.00
10245;DHT22;5167;52.164;10.530;2023-09-18T00:37:11;22.70;5.40
10245;DHT22;5167;52.164;10.530;2023-09-18T00:39:38;22.70;5.00
10245;DHT22;5167;52.164;10.530;2023-09-18T00:42:03;22.70;5.70
10245;DHT22;5167;52.164;10.530;2023-09-18T00:44:29;22.60;5.00
10245;DHT22;5167;52.164;10.530;2023-09-18T00:46:55;22.60;5.00
10245;DHT22;5167;52.164;10.530;2023-09-18T00:49:22;22.60;5.00
10245;DHT22;5167;52.164;10.530;2023-09-18T00:51:49;22.60;5.00
10245;DHT22;5167;52.164;10.530;2023-09-18T00:54:17;22.50;5.00
10245;DHT22;5167;52.164;10.530;2023-09-18T00:56:45;22.50;5.50
10245;DHT22;5167;52.164;10.530;2023-09-18T00:59:11;22.40;5.00
10245;DHT22;5167;52.164;10.530;2023-09-18T01:01:39;22.50;5.60
10245;DHT22;5167;52.164;10.530;2023-09-18T01:04:04;22.40;5.60
10245;DHT22;5167;52.164;10.530;2023-09-18T01:06:30;22.40;5.70
10245;DHT22;5167;52.164;10.530;2023-09-18T01:08:56;22.30;6.00
10245;DHT22;5167;52.164;10.530;2023-09-18T01:11:45;22.30;6.10
10245;DHT22;5167;52.164;10.530;2023-09-18T01:14:20;22.30;6.50
10245;DHT22;5167;52.164;10.530;2023-09-18T01:16:59;22.30;6.50
10245;DHT22;5167;52.164;10.530;2023-09-18T01:19:45;22.30;6.10
10245;DHT22;5167;52.164;10.530;2023-09-18T01:22:17;22.20;6.70
10245;DHT22;5167;52.164;10.530;2023-09-18T01:24:44;22.20;10.40
10245;DHT22;5167;52.164;10.530;2023-09-18T01:27:14;22.10;10.40
10245;DHT22;5167;52.164;10.530;2023-09-18T01:29:40;22.10;8.70
10245;DHT22;5167;52.164;10.530;2023-09-18T01:32:06;22.00;8.40
10245;DHT22;5167;52.164;10.530;2023-09-18T01:34:34;22.00;8.40
10245;DHT22;5167;52.164;10.530;2023-09-18T01:37:05;22.00;8.70
10245;DHT22;5167;52.164;10.530;2023-09-18T01:39:32;22.00;8.70
10245;DHT22;5167;52.164;10.530;2023-09-18T01:42:00;21.90;8.90
10245;DHT22;5167;52.164;10.530;2023-09-18T01:44:27;21.90;9.00
10245;DHT22;5167;52.164;10.530;2023-09-18T01:46:53;21.90;10.10
10245;DHT22;5167;52.164;10.530;2023-09-18T01:49:29;21.90;9.20
10245;DHT22;5167;52.164;10.530;2023-09-18T01:51:55;21.80;9.20
10245;DHT22;5167;52.164;10.530;2023-09-18T01:54:20;21.80;9.90
10245;DHT22;5167;52.164;10.530;2023-09-18T01:56:46;21.90;9.70
10245;DHT22;5167;52.164;10.530;2023-09-18T01:59:12;21.80;10.30
10245;DHT22;5167;52.164;10.530;2023-09-18T02:01:37;21.80;10.20
10245;DHT22;5167;52.164;10.530;2023-09-18T02:04:04;21.80;10.60
10245;DHT22;5167;52.164;10.530;2023-09-18T02:06:29;21.80;10.20
10245;DHT22;5167;52.164;10.530;2023-09-18T02:08:55;21.80;10.20
10245;DHT22;5167;52.164;10.530;2023-09-18T02:11:21;21.70;10.60
10245;DHT22;5167;52.164;10.530;2023-09-18T02:13:46;21.80;10.30
10245;DHT22;5167;52.164;10.530;2023-09-18T02:16:12;21.70;10.10
10245;DHT22;5167;52.164;10.530;2023-09-18T02:18:37;21.70;9.40
10245;DHT22;5167;52.164;10.530;2023-09-18T02:21:03;21.70;10.00
10245;DHT22;5167;52.164;10.530;2023-09-18T02:23:28;21.70;10.20
10245;DHT22;5167;52.164;10.530;2023-09-18T02:25:57;21.60;9.90
10245;DHT22;5167;52.164;10.530;2023-09-18T02:28:23;21.60;11.00
10245;DHT22;5167;52.164;10.530;2023-09-18T02:30:49;21.60;11.10
10245;DHT22;5167;52.164;10.530;2023-09-18T02:33:23;21.60;11.60
10245;DHT22;5167;52.164;10.530;2023-09-18T02:35:48;21.50;12.50
10245;DHT22;5167;52.164;10.530;2023-09-18T02:38:14;21.50;12.70
10245;DHT22;5167;52.164;10.530;2023-09-18T02:40:39;21.50;11.40
10245;DHT22;5167;52.164;10.530;2023-09-18T02:43:05;21.50;11.80
10245;DHT22;5167;52.164;10.530;2023-09-18T02:45:30;21.40;12.40
10245;DHT22;5167;52.164;10.530;2023-09-18T02:47:56;21.50;12.50
10245;DHT22;5167;52.164;10.530;2023-09-18T02:50:21;21.50;13.00
10245;DHT22;5167;52.164;10.530;2023-09-18T02:52:47;21.50;12.90
10245;DHT22;5167;52.164;10.530;2023-09-18T02:55:12;21.50;13.60
10245;DHT22;5167;52.164;10.530;2023-09-18T02:57:38;21.50;13.20
10245;DHT22;5167;52.164;10.530;2023-09-18T03:00:04;21.50;13.10
10245;DHT22;5167;52.164;10.530;2023-09-18T03:02:30;21.50;13.10
10245;DHT22;5167;52.164;10.530;2023-09-18T03:04:55;21.50;13.70
10245;DHT22;5167;52.164;10.530;2023-09-18T03:07:21;21.50;13.30
10245;DHT22;5167;52.164;10.530;2023-09-18T03:09:47;21.40;13.20
10245;DHT22;5167;52.164;10.530;2023-09-18T03:12:13;21.40;12.30
10245;DHT22;5167;52.164;10.530;2023-09-18T03:14:38;21.40;12.60
10245;DHT22;5167;52.164;10.530;2023-09-18T03:17:04;21.40;12.60
10245;DHT22;5167;52.164;10.530;2023-09-18T03:19:29;21.40;13.00
10245;DHT22;5167;52.164;10.530;2023-09-18T03:21:55;21.40;13.90
10245;DHT22;5167;52.164;10.530;2023-09-18T03:24:20;21.40;13.80
10245;DHT22;5167;52.164;10.530;2023-09-18T03:26:46;21.30;15.00
10245;DHT22;5167;52.164;10.530;2023-09-18T03:29:11;21.30;13.90
10245;DHT22;5167;52.164;10.530;2023-09-18T03:31:37;21.30;13.30
10245;DHT22;5167;52.164;10.530;2023-09-18T03:34:02;21.30;17.00
10245;DHT22;5167;52.164;10.530;2023-09-18T03:36:28;21.30;14.90
10245;DHT22;5167;52.164;10.530;2023-09-18T03:38:54;21.30;14.10
10245;DHT22;5167;52.164;10.530;2023-09-18T03:41:19;21.30;13.80
10245;DHT22;5167;52.164;10.530;2023-09-18T03:43:45;21.30;15.00
10245;DHT22;5167;52.164;10.530;2023-09-18T03:46:10;21.20;14.50
10245;DHT22;5167;52.164;10.530;2023-09-18T03:48:36;21.20;14.10
10245;DHT22;5167;52.164;10.530;2023-09-18T03:51:06;21.20;15.10
10245;DHT22;5167;52.164;10.530;2023-09-18T03:53:33;21.20;15.60
10245;DHT22;5167;52.164;10.530;2023-09-18T03:55:59;21.20;15.10
10245;DHT22;5167;52.164;10.530;2023-09-18T03:58:24;21.20;15.60
10245;DHT22;5167;52.164;10.530;2023-09-18T04:00:50;21.20;15.30
10245;DHT22;5167;52.164;10.530;2023-09-18T04:03:16;21.10;15.40
10245;DHT22;5167;52.164;10.530;2023-09-18T04:05:42;21.10;15.30
10245;DHT22;5167;52.164;10.530;2023-09-18T04:08:07;21.10;15.90
10245;DHT22;5167;52.164;10.530;2023-09-18T04:10:33;21.10;15.50
10245;DHT22;5167;52.164;10.530;2023-09-18T04:13:00;21.10;15.50
10245;DHT22;5167;52.164;10.530;2023-09-18T04:15:25;21.10;14.80
10245;DHT22;5167;52.164;10.530;2023-09-18T04:17:53;21.10;15.50
10245;DHT22;5167;52.164;10.530;2023-09-18T04:20:18;21.10;16.60
10245;DHT22;5167;52.164;10.530;2023-09-18T04:22:45;21.10;16.20
10245;DHT22;5167;52.164;10.530;2023-09-18T04:25:15;21.20;16.20
10245;DHT22;5167;52.164;10.530;2023-09-18T04:27:40;21.00;16.20
10245;DHT22;5167;52.164;10.530;2023-09-18T04:30:07;21.00;16.90
10245;DHT22;5167;52.164;10.530;2023-09-18T04:32:35;20.90;17.20
10245;DHT22;5167;52.164;10.530;2023-09-18T04:35:01;21.00;17.10
10245;DHT22;5167;52.164;10.530;2023-09-18T04:37:26;20.90;17.20
10245;DHT22;5167;52.164;10.530;2023-09-18T04:39:52;20.90;17.40
10245;DHT22;5167;52.164;10.530;2023-09-18T04:42:17;20.90;17.90
10245;DHT22;5167;52.164;10.530;2023-09-18T04:44:44;20.90;18.00
10245;DHT22;5167;52.164;10.530;2023-09-18T04:47:09;21.10;18.00
10245;DHT22;5167;52.164;10.530;2023-09-18T04:49:35;20.80;17.80
10245;DHT22;5167;52.164;10.530;2023-09-18T04:52:00;20.80;18.10
10245;DHT22;5167;52.164;10.530;2023-09-18T04:54:26;20.80;18.20
10245;DHT22;5167;52.164;10.530;2023-09-18T04:56:51;20.80;18.70
10245;DHT22;5167;52.164;10.530;2023-09-18T04:59:17;20.80;18.80
10245;DHT22;5167;52.164;10.530;2023-09-18T05:01:42;20.80;19.10
10245;DHT22;5167;52.164;10.530;2023-09-18T05:04:09;20.70;19.30
10245;DHT22;5167;52.164;10.530;2023-09-18T05:06:34;20.80;19.60
10245;DHT22;5167;52.164;10.530;2023-09-18T05:09:00;20.80;19.30
10245;DHT22;5167;52.164;10.530;2023-09-18T05:11:26;20.80;19.30
10245;DHT22;5167;52.164;10.530;2023-09-18T05:13:51;20.80;19.30
10245;DHT22;5167;52.164;10.530;2023-09-18T05:16:18;20.70;18.80
10245;DHT22;5167;52.164;10.530;2023-09-18T05:18:43;20.70;18.90
10245;DHT22;5167;52.164;10.530;2023-09-18T05:21:10;20.70;19.00
10245;DHT22;5167;52.164;10.530;2023-09-18T05:23:36;20.70;19.30
10245;DHT22;5167;52.164;10.530;2023-09-18T05:26:02;20.80;19.20
10245;DHT22;5167;52.164;10.530;2023-09-18T05:28:28;20.70;19.30
10245;DHT22;5167;52.164;10.530;2023-09-18T05:30:54;20.70;19.10
10245;DHT22;5167;52.164;10.530;2023-09-18T05:33:20;20.70;20.20
10245;DHT22;5167;52.164;10.530;2023-09-18T05:35:45;20.70;20.50
10245;DHT22;5167;52.164;10.530;2023-09-18T05:38:12;20.70;20.30
10245;DHT22;5167;52.164;10.530;2023-09-18T05:40:39;20.70;20.40
10245;DHT22;5167;52.164;10.530;2023-09-18T05:43:05;20.70;20.70
10245;DHT22;5167;52.164;10.530;2023-09-18T05:45:30;20.70;20.60
10245;DHT22;5167;52.164;10.530;2023-09-18T05:47:57;20.70;21.00
10245;DHT22;5167;52.164;10.530;2023-09-18T05:50:30;20.70;21.90
10245;DHT22;5167;52.164;10.530;2023-09-18T05:52:57;20.70;22.20
10245;DHT22;5167;52.164;10.530;2023-09-18T05:55:26;20.80;22.60
10245;DHT22;5167;52.164;10.530;2023-09-18T05:57:53;20.80;22.50
10245;DHT22;5167;52.164;10.530;2023-09-18T06:00:19;20.80;22.50
10245;DHT22;5167;52.164;10.530;2023-09-18T06:02:45;20.80;22.50
10245;DHT22;5167;52.164;10.530;2023-09-18T06:05:11;20.90;22.70
10245;DHT22;5167;52.164;10.530;2023-09-18T06:07:37;20.90;22.90
10245;DHT22;5167;52.164;10.530;2023-09-18T06:10:03;20.90;23.20
10245;DHT22;5167;52.164;10.530;2023-09-18T06:12:29;20.90;23.50
10245;DHT22;5167;52.164;10.530;2023-09-18T06:14:55;20.90;23.50
10245;DHT22;5167;52.164;10.530;2023-09-18T06:17:21;21.10;27.00
10245;DHT22;5167;52.164;10.530;2023-09-18T06:19:46;21.10;23.70
10245;DHT22;5167;52.164;10.530;2023-09-18T06:22:12;21.40;23.20
10245;DHT22;5167;52.164;10.530;2023-09-18T06:24:38;21.10;22.80
10245;DHT22;5167;52.164;10.530;2023-09-18T06:27:04;21.20;23.20
10245;DHT22;5167;52.164;10.530;2023-09-18T06:29:30;21.20;22.50
10245;DHT22;5167;52.164;10.530;2023-09-18T06:31:56;21.30;22.70
10245;DHT22;5167;52.164;10.530;2023-09-18T06:34:21;21.30;22.20
10245;DHT22;5167;52.164;10.530;2023-09-18T06:36:47;21.30;22.50
10245;DHT22;5167;52.164;10.530;2023-09-18T06:39:12;21.40;22.40
10245;DHT22;5167;52.164;10.530;2023-09-18T06:41:38;21.50;21.80
10245;DHT22;5167;52.164;10.530;2023-09-18T06:44:04;21.50;21.80
10245;DHT22;5167;52.164;10.530;2023-09-18T06:46:30;21.50;21.70
10245;DHT22;5167;52.164;10.530;2023-09-18T06:48:56;21.50;21.80
10245;DHT22;5167;52.164;10.530;2023-09-18T06:51:22;21.60;21.40
10245;DHT22;5167;52.164;10.530;2023-09-18T06:53:48;21.70;21.60
10245;DHT22;5167;52.164;10.530;2023-09-18T06:56:13;21.70;21.60
10245;DHT22;5167;52.164;10.530;2023-09-18T06:58:39;21.80;20.90
10245;DHT22;5167;52.164;10.530;2023-09-18T07:01:05;21.80;20.60
10245;DHT22;5167;52.164;10.530;2023-09-18T07:03:35;21.90;20.50
10245;DHT22;5167;52.164;10.530;2023-09-18T07:06:02;21.90;20.90
10245;DHT22;5167;52.164;10.530;2023-09-18T07:08:27;22.00;20.60
10245;DHT22;5167;52.164;10.530;2023-09-18T07:10:53;22.00;20.70
10245;DHT22;5167;52.164;10.530;2023-09-18T07:13:18;22.10;20.00
10245;DHT22;5167;52.164;10.530;2023-09-18T07:15:44;22.10;20.60
10245;DHT22;5167;52.164;10.530;2023-09-18T07:18:10;22.10;20.60
10245;DHT22;5167;52.164;10.530;2023-09-18T07:20:43;22.20;20.00
10245;DHT22;5167;52.164;10.530;2023-09-18T07:23:09;22.20;20.50
10245;DHT22;5167;52.164;10.530;2023-09-18T07:25:35;22.30;20.30
10245;DHT22;5167;52.164;10.530;2023-09-18T07:28:05;22.30;19.70
10245;DHT22;5167;52.164;10.530;2023-09-18T07:30:30;22.30;19.80
10245;DHT22;5167;52.164;10.530;2023-09-18T07:32:56;22.50;20.10
10245;DHT22;5167;52.164;10.530;2023-09-18T07:35:24;22.40;19.60
10245;DHT22;5167;52.164;10.530;2023-09-18T07:37:50;22.40;19.40
10245;DHT22;5167;52.164;10.530;2023-09-18T07:40:16;22.40;19.80
10245;DHT22;5167;52.164;10.530;2023-09-18T07:42:42;22.50;20.20
10245;DHT22;5167;52.164;10.530;2023-09-18T07:45:09;22.40;20.00
10245;DHT22;5167;52.164;10.530;2023-09-18T07:47:35;22.50;20.30
10245;DHT22;5167;52.164;10.530;2023-09-18T07:50:00;22.50;19.20
10245;DHT22;5167;52.164;10.530;2023-09-18T07:52:26;22.50;19.00
10245;DHT22;5167;52.164;10.530;2023-09-18T07:54:52;22.60;17.90
10245;DHT22;5167;52.164;10.530;2023-09-18T07:57:17;22.80;18.90
10245;DHT22;5167;52.164;10.530;2023-09-18T07:59:44;22.70;18.40
10245;DHT22;5167;52.164;10.530;2023-09-18T08:02:09;22.70;18.40
10245;DHT22;5167;52.164;10.530;2023-09-18T08:04:35;22.70;18.30
10245;DHT22;5167;52.164;10.530;2023-09-18T08:07:01;22.80;17.90
10245;DHT22;5167;52.164;10.530;2023-09-18T08:09:26;22.80;17.70
10245;DHT22;5167;52.164;10.530;2023-09-18T08:11:55;22.80;18.10
10245;DHT22;5167;52.164;10.530;2023-09-18T08:14:21;22.90;19.50
10245;DHT22;5167;52.164;10.530;2023-09-18T08:16:47;23.00;17.90
10245;DHT22;5167;52.164;10.530;2023-09-18T08:19:15;23.10;18.50
10245;DHT22;5167;52.164;10.530;2023-09-18T08:21:42;23.10;18.80
10245;DHT22;5167;52.164;10.530;2023-09-18T08:24:08;23.10;18.70
10245;DHT22;5167;52.164;10.530;2023-09-18T08:26:33;23.20;18.40
10245;DHT22;5167;52.164;10.530;2023-09-18T08:28:59;23.30;18.00
10245;DHT22;5167;52.164;10.530;2023-09-18T08:31:24;23.30;17.90
10245;DHT22;5167;52.164;10.530;2023-09-18T08:33:50;23.40;18.20
10245;DHT22;5167;52.164;10.530;2023-09-18T08:36:16;23.40;17.70
10245;DHT22;5167;52.164;10.530;2023-09-18T08:38:41;23.40;19.90
10245;DHT22;5167;52.164;10.530;2023-09-18T08:41:10;23.50;18.10
10245;DHT22;5167;52.164;10.530;2023-09-18T08:43:37;23.50;18.40
10245;DHT22;5167;52.164;10.530;2023-09-18T08:46:03;23.60;18.00
10245;DHT22;5167;52.164;10.530;2023-09-18T08:48:29;23.50;17.90
10245;DHT22;5167;52.164;10.530;2023-09-18T08:51:05;23.60;18.10
10245;DHT22;5167;52.164;10.530;2023-09-18T08:53:35;23.60;17.60
10245;DHT22;5167;52.164;10.530;2023-09-18T08:56:02;23.60;17.80
10245;DHT22;5167;52.164;10.530;2023-09-18T08:58:32;23.60;18.00
10245;DHT22;5167;52.164;10.530;2023-09-18T09:00:59;23.60;18.10
10245;DHT22;5167;52.164;10.530;2023-09-18T09:03:26;23.70;18.70
10245;DHT22;5167;52.164;10.530;2023-09-18T09:05:52;23.70;18.80
10245;DHT22;5167;52.164;10.530;2023-09-18T09:09:02;23.60;17.70
10245;DHT22;5167;52.164;10.530;2023-09-18T09:11:27;23.70;18.10
10245;DHT22;5167;52.164;10.530;2023-09-18T09:14:11;23.70;18.20
10245;DHT22;5167;52.164;10.530;2023-09-18T09:16:39;23.80;18.10
10245;DHT22;5167;52.164;10.530;2023-09-18T09:19:05;23.80;18.00
10245;DHT22;5167;52.164;10.530;2023-09-18T09:21:41;23.90;17.90
10245;DHT22;5167;52.164;10.530;2023-09-18T09:24:09;24.00;17.90
10245;DHT22;5167;52.164;10.530;2023-09-18T09:26:40;23.90;17.80
10245;DHT22;5167;52.164;10.530;2023-09-18T09:29:17;24.00;17.40
10245;DHT22;5167;52.164;10.530;2023-09-18T09:31:43;24.20;19.70
10245;DHT22;5167;52.164;10.530;2023-09-18T09:34:09;24.10;16.40
10245;DHT22;5167;52.164;10.530;2023-09-18T09:36:34;24.10;14.40
10245;DHT22;5167;52.164;10.530;2023-09-18T09:39:00;24.10;10.10
10245;DHT22;5167;52.164;10.530;2023-09-18T09:41:31;24.20;9.70
10245;DHT22;5167;52.164;10.530;2023-09-18T09:43:59;24.30;8.90
10245;DHT22;5167;52.164;10.530;2023-09-18T09:46:24;24.50;6.50
10245;DHT22;5167;52.164;10.530;2023-09-18T09:49:05;24.40;5.00
10245;DHT22;5167;52.164;10.530;2023-09-18T09:51:32;24.40;5.00
10245;DHT22;5167;52.164;10.530;2023-09-18T09:53:58;24.50;5.00
10245;DHT22;5167;52.164;10.530;2023-09-18T09:56:47;24.50;5.00
10245;DHT22;5167;52.164;10.530;2023-09-18T09:59:15;24.70;5.00
10245;DHT22;5167;52.164;10.530;2023-09-18T10:01:43;24.70;5.00
10245;DHT22;5167;52.164;10.530;2023-09-18T10:04:16;24.70;5.00
10245;DHT22;5167;52.164;10.530;2023-09-18T10:06:51;24.80;5.00
10245;DHT22;5167;52.164;10.530;2023-09-18T10:09:19;24.90;5.00
10245;DHT22;5167;52.164;10.530;2023-09-18T10:11:51;25.00;5.00
10245;DHT22;5167;52.164;10.530;2023-09-18T10:14:22;25.10;5.00
10245;DHT22;5167;52.164;10.530;2023-09-18T10:16:56;25.20;5.00
10245;DHT22;5167;52.164;10.530;2023-09-18T10:19:29;25.30;5.00
10245;DHT22;5167;52.164;10.530;2023-09-18T10:22:06;25.40;5.00
10245;DHT22;5167;52.164;10.530;2023-09-18T10:24:37;25.40;5.00
10245;DHT22;5167;52.164;10.530;2023-09-18T10:27:05;25.50;5.00
10245;DHT22;5167;52.164;10.530;2023-09-18T10:29:33;25.40;5.00
10245;DHT22;5167;52.164;10.530;2023-09-18T10:32:04;25.50;5.00
10245;DHT22;5167;52.164;10.530;2023-09-18T10:34:30;25.50;5.00
10245;DHT22;5167;52.164;10.530;2023-09-18T10:37:00;25.50;5.00
10245;DHT22;5167;52.164;10.530;2023-09-18T10:39:26;25.50;5.00
10245;DHT22;5167;52.164;10.530;2023-09-18T10:41:55;25.50;5.00
10245;DHT22;5167;52.164;10.530;2023-09-18T10:44:21;25.60;5.00
10245;DHT22;5167;52.164;10.530;2023-09-18T10:46:49;25.50;5.00
10245;DHT22;5167;52.164;10.530;2023-09-18T10:49:15;25.50;5.00
10245;DHT22;5167;52.164;10.530;2023-09-18T10:51:41;25.70;5.00
10245;DHT22;5167;52.164;10.530;2023-09-18T10:54:09;25.50;5.00
10245;DHT22;5167;52.164;10.530;2023-09-18T10:56:34;25.50;5.00
10245;DHT22;5167;52.164;10.530;2023-09-18T10:59:01;25.50;5.00
10245;DHT22;5167;52.164;10.530;2023-09-18T11:01:29;25.50;5.00
10245;DHT22;5167;52.164;10.530;2023-09-18T11:04:00;25.50;5.00
10245;DHT22;5167;52.164;10.530;2023-09-18T11:06:27;25.50;5.00
10245;DHT22;5167;52.164;10.530;2023-09-18T11:09:03;25.50;5.00
10245;DHT22;5167;52.164;10.530;2023-09-18T11:11:30;25.50;5.00
10245;DHT22;5167;52.164;10.530;2023-09-18T11:13:58;25.70;5.00
10245;DHT22;5167;52.164;10.530;2023-09-18T11:21:27;25.60;5.00
10245;DHT22;5167;52.164;10.530;2023-09-18T11:24:24;25.70;5.00
10245;DHT22;5167;52.164;10.530;2023-09-18T11:26:50;25.70;5.00
10245;DHT22;5167;52.164;10.530;2023-09-18T11:29:21;25.70;5.00
10245;DHT22;5167;52.164;10.530;2023-09-18T11:31:55;25.80;5.00
10245;DHT22;5167;52.164;10.530;2023-09-18T11:36:48;25.70;5.00
10245;DHT22;5167;52.164;10.530;2023-09-18T11:39:39;25.70;5.00
10245;DHT22;5167;52.164;10.530;2023-09-18T11:42:19;25.80;5.00
10245;DHT22;5167;52.164;10.530;2023-09-18T11:44:47;25.90;5.00
10245;DHT22;5167;52.164;10.530;2023-09-18T11:47:14;25.90;5.00
10245;DHT22;5167;52.164;10.530;2023-09-18T11:49:51;25.90;5.00
10245;DHT22;5167;52.164;10.530;2023-09-18T11:52:26;25.90;5.00
10245;DHT22;5167;52.164;10.530;2023-09-18T11:54:52;26.00;5.00
10245;DHT22;5167;52.164;10.530;2023-09-18T11:57:20;25.90;5.00
10245;DHT22;5167;52.164;10.530;2023-09-18T11:59:46;25.90;5.00
10245;DHT22;5167;52.164;10.530;2023-09-18T12:02:28;26.00;5.00
10245;DHT22;5167;52.164;10.530;2023-09-18T12:04:54;26.00;5.00
10245;DHT22;5167;52.164;10.530;2023-09-18T12:07:20;26.00;5.00
10245;DHT22;5167;52.164;10.530;2023-09-18T12:09:46;25.90;5.00
10245;DHT22;5167;52.164;10.530;2023-09-18T12:12:11;25.90;5.00
10245;DHT22;5167;52.164;10.530;2023-09-18T12:14:40;25.90;5.00
10245;DHT22;5167;52.164;10.530;2023-09-18T12:17:07;25.90;5.00
10245;DHT22;5167;52.164;10.530;2023-09-18T12:19:34;25.90;5.00
10245;DHT22;5167;52.164;10.530;2023-09-18T12:22:00;25.80;5.00
10245;DHT22;5167;52.164;10.530;2023-09-18T12:24:26;25.80;5.00
10245;DHT22;5167;52.164;10.530;2023-09-18T12:26:54;25.80;5.00
10245;DHT22;5167;52.164;10.530;2023-09-18T12:29:20;25.80;5.00
10245;DHT22;5167;52.164;10.530;2023-09-18T12:31:46;25.90;5.00
10245;DHT22;5167;52.164;10.530;2023-09-18T12:34:19;25.90;5.00
10245;DHT22;5167;52.164;10.530;2023-09-18T12:36:47;25.90;5.00
10245;DHT22;5167;52.164;10.530;2023-09-18T12:39:14;25.90;5.00
10245;DHT22;5167;52.164;10.530;2023-09-18T12:41:46;25.80;5.00
10245;DHT22;5167;52.164;10.530;2023-09-18T12:44:12;25.80;5.00
10245;DHT22;5167;52.164;10.530;2023-09-18T12:46:40;25.70;5.00
10245;DHT22;5167;52.164;10.530;2023-09-18T12:49:19;25.70;5.00
10245;DHT22;5167;52.164;10.530;2023-09-18T12:51:54;25.70;5.00
10245;DHT22;5167;52.164;10.530;2023-09-18T12:54:20;25.70;5.00
10245;DHT22;5167;52.164;10.530;2023-09-18T12:56:46;25.60;5.00
10245;DHT22;5167;52.164;10.530;2023-09-18T12:59:11;25.60;5.00
10245;DHT22;5167;52.164;10.530;2023-09-18T13:01:38;25.60;5.00
10245;DHT22;5167;52.164;10.530;2023-09-18T13:04:04;25.60;5.00
10245;DHT22;5167;52.164;10.530;2023-09-18T13:06:31;25.50;5.00
10245;DHT22;5167;52.164;10.530;2023-09-18T13:09:15;25.50;5.00
10245;DHT22;5167;52.164;10.530;2023-09-18T13:11:57;25.50;5.00
10245;DHT22;5167;52.164;10.530;2023-09-18T13:14:23;25.50;5.00
10245;DHT22;5167;52.164;10.530;2023-09-18T13:16:49;25.50;5.00
10245;DHT22;5167;52.164;10.530;2023-09-18T13:19:14;25.50;5.00
10245;DHT22;5167;52.164;10.530;2023-09-18T13:21:49;25.50;5.00
10245;DHT22;5167;52.164;10.530;2023-09-18T13:24:28;25.40;5.00
10245;DHT22;5167;52.164;10.530;2023-09-18T13:26:54;25.40;5.00
10245;DHT22;5167;52.164;10.530;2023-09-18T13:29:21;25.50;5.00
10245;DHT22;5167;52.164;10.530;2023-09-18T13:31:47;25.50;5.00
10245;DHT22;5167;52.164;10.530;2023-09-18T13:34:12;25.50;5.00
10245;DHT22;5167;52.164;10.530;2023-09-18T13:36:38;25.60;5.00
10245;DHT22;5167;52.164;10.530;2023-09-18T13:39:03;25.50;5.00
10245;DHT22;5167;52.164;10.530;2023-09-18T13:41:29;25.60;5.00
10245;DHT22;5167;52.164;10.530;2023-09-18T13:43:56;25.60;5.00
10245;DHT22;5167;52.164;10.530;2023-09-18T13:46:22;25.50;5.00
10245;DHT22;5167;52.164;10.530;2023-09-18T13:48:49;25.50;5.00
10245;DHT22;5167;52.164;10.530;2023-09-18T13:51:14;25.50;5.00
10245;DHT22;5167;52.164;10.530;2023-09-18T13:53:40;25.60;5.00
10245;DHT22;5167;52.164;10.530;2023-09-18T13:56:06;25.60;5.00
10245;DHT22;5167;52.164;10.530;2023-09-18T13:58:32;25.50;5.00
10245;DHT22;5167;52.164;10.530;2023-09-18T14:00:59;25.50;5.00
10245;DHT22;5167;52.164;10.530;2023-09-18T14:03:24;25.50;5.00
10245;DHT22;5167;52.164;10.530;2023-09-18T14:05:50;25.50;5.00
10245;DHT22;5167;52.164;10.530;2023-09-18T14:08:15;25.50;5.00
10245;DHT22;5167;52.164;10.530;2023-09-18T14:10:43;25.50;5.00
10245;DHT22;5167;52.164;10.530;2023-09-18T14:13:08;25.50;5.00
10245;DHT22;5167;52.164;10.530;2023-09-18T14:15:34;25.50;5.00
10245;DHT22;5167;52.164;10.530;2023-09-18T14:17:59;25.50;5.00
10245;DHT22;5167;52.164;10.530;2023-09-18T14:20:25;25.40;5.00
10245;DHT22;5167;52.164;10.530;2023-09-18T14:22:50;25.50;5.00
10245;DHT22;5167;52.164;10.530;2023-09-18T14:25:16;25.40;5.00
10245;DHT22;5167;52.164;10.530;2023-09-18T14:27:42;25.40;5.00
10245;DHT22;5167;52.164;10.530;2023-09-18T14:30:08;25.50;5.00
10245;DHT22;5167;52.164;10.530;2023-09-18T14:32:35;25.70;5.00
10245;DHT22;5167;52.164;10.530;2023-09-18T14:35:03;25.40;5.00
10245;DHT22;5167;52.164;10.530;2023-09-18T14:37:30;25.40;5.00
10245;DHT22;5167;52.164;10.530;2023-09-18T14:39:56;25.40;5.00
10245;DHT22;5167;52.164;10.530;2023-09-18T14:42:21;25.40;5.00
10245;DHT22;5167;52.164;10.530;2023-09-18T14:44:47;25.40;5.00
10245;DHT22;5167;52.164;10.530;2023-09-18T14:47:13;25.40;5.00
10245;DHT22;5167;52.164;10.530;2023-09-18T14:49:39;25.30;5.00
10245;DHT22;5167;52.164;10.530;2023-09-18T14:52:05;25.40;5.00
10245;DHT22;5167;52.164;10.530;2023-09-18T14:54:30;25.40;5.00
10245;DHT22;5167;52.164;10.530;2023-09-18T14:56:56;25.30;5.00
10245;DHT22;5167;52.164;10.530;2023-09-18T14:59:21;25.30;5.00
10245;DHT22;5167;52.164;10.530;2023-09-18T15:01:47;25.40;5.00
10245;DHT22;5167;52.164;10.530;2023-09-18T15:04:14;25.40;5.00
10245;DHT22;5167;52.164;10.530;2023-09-18T15:06:40;25.40;5.00
10245;DHT22;5167;52.164;10.530;2023-09-18T15:09:06;25.50;5.00
10245;DHT22;5167;52.164;10.530;2023-09-18T15:11:33;25.40;5.00
10245;DHT22;5167;52.164;10.530;2023-09-18T15:14:01;25.40;5.00
10245;DHT22;5167;52.164;10.530;2023-09-18T15:16:27;25.40;5.00
10245;DHT22;5167;52.164;10.530;2023-09-18T15:18:54;25.40;5.00
10245;DHT22;5167;52.164;10.530;2023-09-18T15:21:20;25.30;5.00
10245;DHT22;5167;52.164;10.530;2023-09-18T15:23:46;25.30;5.00
10245;DHT22;5167;52.164;10.530;2023-09-18T15:26:11;25.30;5.00
10245;DHT22;5167;52.164;10.530;2023-09-18T15:28:37;25.30;5.00
10245;DHT22;5167;52.164;10.530;2023-09-18T15:31:02;25.30;5.00
10245;DHT22;5167;52.164;10.530;2023-09-18T15:33:28;25.20;5.00
10245;DHT22;5167;52.164;10.530;2023-09-18T15:35:53;25.20;5.00
10245;DHT22;5167;52.164;10.530;2023-09-18T15:38:19;25.20;5.00
10245;DHT22;5167;52.164;10.530;2023-09-18T15:40:46;25.30;5.00
10245;DHT22;5167;52.164;10.530;2023-09-18T15:43:12;25.20;5.00
10245;DHT22;5167;52.164;10.530;2023-09-18T15:45:37;25.20;5.00